sensor_id;sensor_type;location;lat;lon;timestamp;temperature;humidity
7846;DHT22;3968;51.424;6.788;2023-03-01T00:01:25;2.30;99.90
7846;DHT22;3968;51.424;6.788;2023-03-01T00:03:52;2.30;99.90
7846;DHT22;3968;51.424;6.788;2023-03-01T00:06:19;2.20;99.90
7846;DHT22;3968;51.424;6.788;2023-03-01T00:08:48;2.30;99.90
7846;DHT22;3968;51.424;6.788;2023-03-01T00:13:47;2.30;99.90
7846;DHT22;3968;51.424;6.788;2023-03-01T00:16:15;2.30;99.90
7846;DHT22;3968;51.424;6.788;2023-03-01T00:18:41;2.20;99.90
7846;DHT22;3968;51.424;6.788;2023-03-01T00:21:07;2.30;99.90
7846;DHT22;3968;51.424;6.788;2023-03-01T00:23:36;2.20;99.90
7846;DHT22;3968;51.424;6.788;2023-03-01T00:26:05;2.20;99.90
7846;DHT22;3968;51.424;6.788;2023-03-01T00:28:31;2.20;99.90
7846;DHT22;3968;51.424;6.788;2023-03-01T00:31:05;2.20;99.90
7846;DHT22;3968;51.424;6.788;2023-03-01T00:33:31;2.20;99.90
7846;DHT22;3968;51.424;6.788;2023-03-01T00:36:01;2.20;99.90
7846;DHT22;3968;51.424;6.788;2023-03-01T00:38:27;2.20;99.90
7846;DHT22;3968;51.424;6.788;2023-03-01T00:40:52;2.20;99.90
7846;DHT22;3968;51.424;6.788;2023-03-01T00:43:18;2.10;99.90
7846;DHT22;3968;51.424;6.788;2023-03-01T00:45:44;2.10;99.90
7846;DHT22;3968;51.424;6.788;2023-03-01T00:48:10;2.10;99.90
7846;DHT22;3968;51.424;6.788;2023-03-01T00:50:35;2.00;99.90
7846;DHT22;3968;51.424;6.788;2023-03-01T00:53:01;2.10;99.90
7846;DHT22;3968;51.424;6.788;2023-03-01T00:55:27;2.10;99.90
7846;DHT22;3968;51.424;6.788;2023-03-01T00:57:53;2.10;99.90
7846;DHT22;3968;51.424;6.788;2023-03-01T01:00:19;2.00;99.90
7846;DHT22;3968;51.424;6.788;2023-03-01T01:02:45;2.00;99.90
7846;DHT22;3968;51.424;6.788;2023-03-01T01:05:12;2.00;99.90
7846;DHT22;3968;51.424;6.788;2023-03-01T01:07:38;2.00;99.90
7846;DHT22;3968;51.424;6.788;2023-03-01T01:10:04;2.00;99.90
7846;DHT22;3968;51.424;6.788;2023-03-01T01:12:30;2.00;99.90
7846;DHT22;3968;51.424;6.788;2023-03-01T01:14:55;2.00;99.90
7846;DHT22;3968;51.424;6.788;2023-03-01T01:17:21;2.00;99.90
7846;DHT22;3968;51.424;6.788;2023-03-01T01:19:47;2.00;99.90
7846;DHT22;3968;51.424;6.788;2023-03-01T01:22:12;2.00;99.90
7846;DHT22;3968;51.424;6.788;2023-03-01T01:24:38;2.00;99.90
7846;DHT22;3968;51.424;6.788;2023-03-01T01:27:03;1.90;99.90
7846;DHT22;3968;51.424;6.788;2023-03-01T01:29:29;1.80;99.90
7846;DHT22;3968;51.424;6.788;2023-03-01T01:31:55;1.80;99.90
7846;DHT22;3968;51.424;6.788;2023-03-01T01:34:21;1.80;99.90
7846;DHT22;3968;51.424;6.788;2023-03-01T01:36:52;1.80;99.90
7846;DHT22;3968;51.424;6.788;2023-03-01T01:39:21;1.80;99.90
7846;DHT22;3968;51.424;6.788;2023-03-01T01:41:47;1.80;99.90
7846;DHT22;3968;51.424;6.788;2023-03-01T01:44:20;1.80;99.90
7846;DHT22;3968;51.424;6.788;2023-03-01T01:46:59;1.80;99.90
7846;DHT22;3968;51.424;6.788;2023-03-01T01:49:37;1.80;99.90
7846;DHT22;3968;51.424;6.788;2023-03-01T01:57:43;1.80;99.90
7846;DHT22;3968;51.424;6.788;2023-03-01T02:00:14;1.80;99.90
7846;DHT22;3968;51.424;6.788;2023-03-01T02:02:40;1.70;99.90
7846;DHT22;3968;51.424;6.788;2023-03-01T02:05:47;1.60;99.90
7846;DHT22;3968;51.424;6.788;2023-03-01T02:08:18;1.60;99.90
7846;DHT22;3968;51.424;6.788;2023-03-01T02:10:45;1.60;99.90
7846;DHT22;3968;51.424;6.788;2023-03-01T02:13:11;1.60;99.90
7846;DHT22;3968;51.424;6.788;2023-03-01T02:15:39;1.60;99.90
7846;DHT22;3968;51.424;6.788;2023-03-01T02:18:07;1.70;99.90
7846;DHT22;3968;51.424;6.788;2023-03-01T02:23:17;1.70;99.90
7846;DHT22;3968;51.424;6.788;2023-03-01T02:28:30;1.60;99.90
7846;DHT22;3968;51.424;6.788;2023-03-01T02:30:56;1.60;99.90
7846;DHT22;3968;51.424;6.788;2023-03-01T02:33:41;1.60;99.90
7846;DHT22;3968;51.424;6.788;2023-03-01T02:36:15;1.60;99.90
7846;DHT22;3968;51.424;6.788;2023-03-01T02:38:42;1.60;99.90
7846;DHT22;3968;51.424;6.788;2023-03-01T02:41:08;1.70;99.90
7846;DHT22;3968;51.424;6.788;2023-03-01T02:43:36;1.60;99.90
7846;DHT22;3968;51.424;6.788;2023-03-01T02:46:07;1.60;99.90
7846;DHT22;3968;51.424;6.788;2023-03-01T02:48:43;1.60;99.90
7846;DHT22;3968;51.424;6.788;2023-03-01T02:54:25;1.50;99.90
7846;DHT22;3968;51.424;6.788;2023-03-01T02:56:53;1.50;99.90
7846;DHT22;3968;51.424;6.788;2023-03-01T02:59:30;1.50;99.90
7846;DHT22;3968;51.424;6.788;2023-03-01T03:01:56;1.40;99.90
7846;DHT22;3968;51.424;6.788;2023-03-01T03:04:22;1.40;99.90
7846;DHT22;3968;51.424;6.788;2023-03-01T03:06:49;1.50;99.90
7846;DHT22;3968;51.424;6.788;2023-03-01T03:09:16;1.40;99.90
7846;DHT22;3968;51.424;6.788;2023-03-01T03:11:42;1.40;99.90
7846;DHT22;3968;51.424;6.788;2023-03-01T03:14:10;1.40;99.90
7846;DHT22;3968;51.424;6.788;2023-03-01T03:16:48;1.40;99.90
7846;DHT22;3968;51.424;6.788;2023-03-01T03:19:15;1.40;99.90
7846;DHT22;3968;51.424;6.788;2023-03-01T03:21:42;1.40;99.90
7846;DHT22;3968;51.424;6.788;2023-03-01T03:24:08;1.30;99.90
7846;DHT22;3968;51.424;6.788;2023-03-01T03:26:34;1.30;99.90
7846;DHT22;3968;51.424;6.788;2023-03-01T03:29:00;1.30;99.90
7846;DHT22;3968;51.424;6.788;2023-03-01T03:31:27;1.30;99.90
7846;DHT22;3968;51.424;6.788;2023-03-01T03:33:52;1.30;99.90
7846;DHT22;3968;51.424;6.788;2023-03-01T03:36:20;1.30;99.90
7846;DHT22;3968;51.424;6.788;2023-03-01T03:38:47;1.30;99.90
7846;DHT22;3968;51.424;6.788;2023-03-01T03:41:14;1.30;99.90
7846;DHT22;3968;51.424;6.788;2023-03-01T03:43:41;1.20;99.90
7846;DHT22;3968;51.424;6.788;2023-03-01T03:46:09;1.20;99.90
7846;DHT22;3968;51.424;6.788;2023-03-01T03:48:41;1.20;99.90
7846;DHT22;3968;51.424;6.788;2023-03-01T03:51:09;1.30;99.90
7846;DHT22;3968;51.424;6.788;2023-03-01T03:53:35;1.30;99.90
7846;DHT22;3968;51.424;6.788;2023-03-01T03:56:00;1.30;99.90
7846;DHT22;3968;51.424;6.788;2023-03-01T03:58:26;1.30;99.90
7846;DHT22;3968;51.424;6.788;2023-03-01T04:00:54;1.20;99.90
7846;DHT22;3968;51.424;6.788;2023-03-01T04:03:22;1.20;99.90
7846;DHT22;3968;51.424;6.788;2023-03-01T04:05:48;1.20;99.90
7846;DHT22;3968;51.424;6.788;2023-03-01T04:08:16;1.20;99.90
7846;DHT22;3968;51.424;6.788;2023-03-01T04:10:46;1.20;99.90
7846;DHT22;3968;51.424;6.788;2023-03-01T04:13:15;1.10;99.90
7846;DHT22;3968;51.424;6.788;2023-03-01T04:15:41;1.10;99.90
7846;DHT22;3968;51.424;6.788;2023-03-01T04:18:11;1.20;99.90
7846;DHT22;3968;51.424;6.788;2023-03-01T04:20:37;1.10;99.90
7846;DHT22;3968;51.424;6.788;2023-03-01T04:23:04;1.10;99.90
7846;DHT22;3968;51.424;6.788;2023-03-01T04:25:38;1.10;99.90
7846;DHT22;3968;51.424;6.788;2023-03-01T04:28:05;1.10;99.90
7846;DHT22;3968;51.424;6.788;2023-03-01T04:30:31;1.10;99.90
7846;DHT22;3968;51.424;6.788;2023-03-01T04:33:10;1.10;99.90
7846;DHT22;3968;51.424;6.788;2023-03-01T04:35:37;1.00;99.90
7846;DHT22;3968;51.424;6.788;2023-03-01T04:38:04;1.10;99.90
7846;DHT22;3968;51.424;6.788;2023-03-01T04:40:30;1.10;99.90
7846;DHT22;3968;51.424;6.788;2023-03-01T04:42:55;1.10;99.90
7846;DHT22;3968;51.424;6.788;2023-03-01T04:45:21;1.10;99.90
7846;DHT22;3968;51.424;6.788;2023-03-01T04:47:46;1.00;99.90
7846;DHT22;3968;51.424;6.788;2023-03-01T04:50:16;1.00;99.90
7846;DHT22;3968;51.424;6.788;2023-03-01T04:52:43;1.00;99.90
7846;DHT22;3968;51.424;6.788;2023-03-01T04:55:10;0.90;99.90
7846;DHT22;3968;51.424;6.788;2023-03-01T04:57:35;0.90;99.90
7846;DHT22;3968;51.424;6.788;2023-03-01T05:00:01;0.90;99.90
7846;DHT22;3968;51.424;6.788;2023-03-01T05:05:23;0.90;99.90
7846;DHT22;3968;51.424;6.788;2023-03-01T05:07:52;0.90;99.90
7846;DHT22;3968;51.424;6.788;2023-03-01T05:10:18;0.90;99.90
7846;DHT22;3968;51.424;6.788;2023-03-01T05:12:44;0.90;99.90
7846;DHT22;3968;51.424;6.788;2023-03-01T05:15:10;0.90;99.90
7846;DHT22;3968;51.424;6.788;2023-03-01T05:17:35;0.80;99.90
7846;DHT22;3968;51.424;6.788;2023-03-01T05:20:01;0.80;99.90
7846;DHT22;3968;51.424;6.788;2023-03-01T05:22:29;0.80;99.90
7846;DHT22;3968;51.424;6.788;2023-03-01T05:24:55;0.80;99.90
7846;DHT22;3968;51.424;6.788;2023-03-01T05:27:20;0.80;99.90
7846;DHT22;3968;51.424;6.788;2023-03-01T05:29:47;0.80;99.90
7846;DHT22;3968;51.424;6.788;2023-03-01T05:32:13;0.80;99.90
7846;DHT22;3968;51.424;6.788;2023-03-01T05:34:41;0.70;99.90
7846;DHT22;3968;51.424;6.788;2023-03-01T05:37:07;0.80;99.90
7846;DHT22;3968;51.424;6.788;2023-03-01T05:39:34;0.70;99.90
7846;DHT22;3968;51.424;6.788;2023-03-01T05:42:00;0.70;99.90
7846;DHT22;3968;51.424;6.788;2023-03-01T05:44:28;0.70;99.90
7846;DHT22;3968;51.424;6.788;2023-03-01T05:46:54;0.70;99.90
7846;DHT22;3968;51.424;6.788;2023-03-01T05:49:20;0.70;99.90
7846;DHT22;3968;51.424;6.788;2023-03-01T05:51:50;0.70;99.90
7846;DHT22;3968;51.424;6.788;2023-03-01T05:54:17;0.60;99.90
7846;DHT22;3968;51.424;6.788;2023-03-01T05:56:43;0.60;99.90
7846;DHT22;3968;51.424;6.788;2023-03-01T05:59:09;0.70;99.90
7846;DHT22;3968;51.424;6.788;2023-03-01T06:01:35;0.70;99.90
7846;DHT22;3968;51.424;6.788;2023-03-01T06:04:02;0.60;99.90
7846;DHT22;3968;51.424;6.788;2023-03-01T06:06:28;0.60;99.90
7846;DHT22;3968;51.424;6.788;2023-03-01T06:08:54;0.70;99.90
7846;DHT22;3968;51.424;6.788;2023-03-01T06:11:21;0.70;99.90
7846;DHT22;3968;51.424;6.788;2023-03-01T06:13:47;0.70;99.90
7846;DHT22;3968;51.424;6.788;2023-03-01T06:16:13;0.70;99.90
7846;DHT22;3968;51.424;6.788;2023-03-01T06:18:39;0.50;99.90
7846;DHT22;3968;51.424;6.788;2023-03-01T06:21:06;0.50;99.90
7846;DHT22;3968;51.424;6.788;2023-03-01T06:23:32;0.50;99.90
7846;DHT22;3968;51.424;6.788;2023-03-01T06:25:58;0.50;99.90
7846;DHT22;3968;51.424;6.788;2023-03-01T06:28:24;0.50;99.90
7846;DHT22;3968;51.424;6.788;2023-03-01T06:30:50;0.60;99.90
7846;DHT22;3968;51.424;6.788;2023-03-01T06:33:17;0.60;99.90
7846;DHT22;3968;51.424;6.788;2023-03-01T06:35:45;0.60;99.90
7846;DHT22;3968;51.424;6.788;2023-03-01T06:38:11;0.50;99.90
7846;DHT22;3968;51.424;6.788;2023-03-01T06:40:37;0.60;99.90
7846;DHT22;3968;51.424;6.788;2023-03-01T06:43:03;0.60;99.90
7846;DHT22;3968;51.424;6.788;2023-03-01T06:45:28;0.60;99.90
7846;DHT22;3968;51.424;6.788;2023-03-01T06:48:02;0.60;99.90
7846;DHT22;3968;51.424;6.788;2023-03-01T06:50:28;0.60;99.90
7846;DHT22;3968;51.424;6.788;2023-03-01T06:52:57;0.60;99.90
7846;DHT22;3968;51.424;6.788;2023-03-01T06:55:23;0.60;99.90
7846;DHT22;3968;51.424;6.788;2023-03-01T06:57:54;0.70;99.90
7846;DHT22;3968;51.424;6.788;2023-03-01T07:00:21;0.60;99.90
7846;DHT22;3968;51.424;6.788;2023-03-01T07:02:47;0.70;99.90
7846;DHT22;3968;51.424;6.788;2023-03-01T07:05:12;0.70;99.90
7846;DHT22;3968;51.424;6.788;2023-03-01T07:07:38;0.60;99.90
7846;DHT22;3968;51.424;6.788;2023-03-01T07:10:04;0.70;99.90
7846;DHT22;3968;51.424;6.788;2023-03-01T07:12:30;0.70;99.90
7846;DHT22;3968;51.424;6.788;2023-03-01T07:14:55;0.70;99.90
7846;DHT22;3968;51.424;6.788;2023-03-01T07:17:21;0.70;99.90
7846;DHT22;3968;51.424;6.788;2023-03-01T07:19:47;0.80;99.90
7846;DHT22;3968;51.424;6.788;2023-03-01T07:22:12;0.90;99.90
7846;DHT22;3968;51.424;6.788;2023-03-01T07:24:38;0.80;99.90
7846;DHT22;3968;51.424;6.788;2023-03-01T07:27:03;0.80;99.90
7846;DHT22;3968;51.424;6.788;2023-03-01T07:29:29;0.80;99.90
7846;DHT22;3968;51.424;6.788;2023-03-01T07:31:55;0.80;99.90
7846;DHT22;3968;51.424;6.788;2023-03-01T07:34:20;0.80;99.90
7846;DHT22;3968;51.424;6.788;2023-03-01T07:36:46;0.80;99.90
7846;DHT22;3968;51.424;6.788;2023-03-01T07:39:12;0.90;99.90
7846;DHT22;3968;51.424;6.788;2023-03-01T07:41:38;0.90;99.90
7846;DHT22;3968;51.424;6.788;2023-03-01T07:44:04;0.90;99.90
7846;DHT22;3968;51.424;6.788;2023-03-01T07:46:30;1.00;99.90
7846;DHT22;3968;51.424;6.788;2023-03-01T07:48:55;1.00;99.90
7846;DHT22;3968;51.424;6.788;2023-03-01T07:51:21;1.00;99.90
7846;DHT22;3968;51.424;6.788;2023-03-01T07:53:47;1.10;99.90
7846;DHT22;3968;51.424;6.788;2023-03-01T07:56:14;1.10;99.90
7846;DHT22;3968;51.424;6.788;2023-03-01T07:58:41;1.10;99.90
7846;DHT22;3968;51.424;6.788;2023-03-01T08:01:09;1.20;99.90
7846;DHT22;3968;51.424;6.788;2023-03-01T08:03:36;1.20;99.90
7846;DHT22;3968;51.424;6.788;2023-03-01T08:06:04;1.20;99.90
7846;DHT22;3968;51.424;6.788;2023-03-01T08:08:30;1.20;99.90
7846;DHT22;3968;51.424;6.788;2023-03-01T08:10:57;1.30;99.90
7846;DHT22;3968;51.424;6.788;2023-03-01T08:13:23;1.30;99.90
7846;DHT22;3968;51.424;6.788;2023-03-01T08:15:49;1.30;99.90
7846;DHT22;3968;51.424;6.788;2023-03-01T08:18:16;1.30;99.90
7846;DHT22;3968;51.424;6.788;2023-03-01T08:20:41;1.40;99.90
7846;DHT22;3968;51.424;6.788;2023-03-01T08:23:07;1.40;99.90
7846;DHT22;3968;51.424;6.788;2023-03-01T08:25:32;1.50;99.90
7846;DHT22;3968;51.424;6.788;2023-03-01T08:27:58;1.60;99.90
7846;DHT22;3968;51.424;6.788;2023-03-01T08:30:24;1.60;99.90
7846;DHT22;3968;51.424;6.788;2023-03-01T08:32:50;1.60;99.90
7846;DHT22;3968;51.424;6.788;2023-03-01T08:35:16;1.60;99.90
7846;DHT22;3968;51.424;6.788;2023-03-01T08:37:42;1.60;99.90
7846;DHT22;3968;51.424;6.788;2023-03-01T08:40:08;1.70;99.90
7846;DHT22;3968;51.424;6.788;2023-03-01T08:42:36;1.80;99.90
7846;DHT22;3968;51.424;6.788;2023-03-01T08:45:05;1.80;99.90
7846;DHT22;3968;51.424;6.788;2023-03-01T08:47:30;1.80;99.90
7846;DHT22;3968;51.424;6.788;2023-03-01T08:49:56;1.90;99.90
7846;DHT22;3968;51.424;6.788;2023-03-01T08:52:22;2.00;99.90
7846;DHT22;3968;51.424;6.788;2023-03-01T08:54:49;2.00;99.90
7846;DHT22;3968;51.424;6.788;2023-03-01T08:57:15;2.00;99.90
7846;DHT22;3968;51.424;6.788;2023-03-01T08:59:41;2.00;99.90
7846;DHT22;3968;51.424;6.788;2023-03-01T09:02:14;2.00;99.90
7846;DHT22;3968;51.424;6.788;2023-03-01T09:04:40;2.10;99.90
7846;DHT22;3968;51.424;6.788;2023-03-01T09:07:06;2.20;99.90
7846;DHT22;3968;51.424;6.788;2023-03-01T09:09:32;2.20;99.90
7846;DHT22;3968;51.424;6.788;2023-03-01T09:11:58;2.30;99.90
7846;DHT22;3968;51.424;6.788;2023-03-01T09:14:23;2.40;99.90
7846;DHT22;3968;51.424;6.788;2023-03-01T09:16:49;2.40;99.90
7846;DHT22;3968;51.424;6.788;2023-03-01T09:19:16;2.50;99.80
7846;DHT22;3968;51.424;6.788;2023-03-01T09:21:42;2.50;99.90
7846;DHT22;3968;51.424;6.788;2023-03-01T09:24:19;2.60;99.10
7846;DHT22;3968;51.424;6.788;2023-03-01T09:26:45;2.60;98.30
7846;DHT22;3968;51.424;6.788;2023-03-01T09:29:14;2.60;97.10
7846;DHT22;3968;51.424;6.788;2023-03-01T09:31:40;2.70;95.60
7846;DHT22;3968;51.424;6.788;2023-03-01T09:34:07;2.70;94.50
7846;DHT22;3968;51.424;6.788;2023-03-01T09:36:33;2.70;94.40
7846;DHT22;3968;51.424;6.788;2023-03-01T09:38:59;2.70;93.80
7846;DHT22;3968;51.424;6.788;2023-03-01T09:41:54;2.80;93.80
7846;DHT22;3968;51.424;6.788;2023-03-01T09:44:30;2.80;93.50
7846;DHT22;3968;51.424;6.788;2023-03-01T09:46:57;2.90;93.20
7846;DHT22;3968;51.424;6.788;2023-03-01T09:49:29;3.00;92.20
7846;DHT22;3968;51.424;6.788;2023-03-01T09:52:33;3.00;91.70
7846;DHT22;3968;51.424;6.788;2023-03-01T09:55:00;3.10;91.10
7846;DHT22;3968;51.424;6.788;2023-03-01T09:57:46;3.20;87.00
7846;DHT22;3968;51.424;6.788;2023-03-01T10:00:44;3.20;85.40
7846;DHT22;3968;51.424;6.788;2023-03-01T10:03:17;3.30;84.20
7846;DHT22;3968;51.424;6.788;2023-03-01T10:06:06;3.30;81.80
7846;DHT22;3968;51.424;6.788;2023-03-01T10:11:52;3.40;78.00
7846;DHT22;3968;51.424;6.788;2023-03-01T10:14:38;3.50;74.20
7846;DHT22;3968;51.424;6.788;2023-03-01T10:17:16;3.50;71.90
7846;DHT22;3968;51.424;6.788;2023-03-01T10:19:45;3.60;69.30
7846;DHT22;3968;51.424;6.788;2023-03-01T10:22:29;3.60;67.90
7846;DHT22;3968;51.424;6.788;2023-03-01T10:24:59;3.60;63.30
7846;DHT22;3968;51.424;6.788;2023-03-01T10:27:29;3.70;61.10
7846;DHT22;3968;51.424;6.788;2023-03-01T10:32:59;3.80;59.20
7846;DHT22;3968;51.424;6.788;2023-03-01T10:35:28;3.80;56.90
7846;DHT22;3968;51.424;6.788;2023-03-01T10:38:11;3.90;56.30
7846;DHT22;3968;51.424;6.788;2023-03-01T10:40:53;3.90;55.30
7846;DHT22;3968;51.424;6.788;2023-03-01T10:43:20;4.00;52.40
7846;DHT22;3968;51.424;6.788;2023-03-01T10:45:46;4.00;49.40
7846;DHT22;3968;51.424;6.788;2023-03-01T10:50:48;4.10;46.90
7846;DHT22;3968;51.424;6.788;2023-03-01T10:53:29;4.20;46.50
7846;DHT22;3968;51.424;6.788;2023-03-01T10:56:10;4.20;43.40
7846;DHT22;3968;51.424;6.788;2023-03-01T10:58:40;4.30;40.40
7846;DHT22;3968;51.424;6.788;2023-03-01T11:03:41;4.30;37.20
7846;DHT22;3968;51.424;6.788;2023-03-01T11:14:03;5.20;58.70
7846;DHT22;3968;51.424;6.788;2023-03-01T11:16:38;5.40;46.50
7846;DHT22;3968;51.424;6.788;2023-03-01T11:24:13;5.70;27.40
7846;DHT22;3968;51.424;6.788;2023-03-01T11:26:41;5.70;25.90
7846;DHT22;3968;51.424;6.788;2023-03-01T11:29:35;5.50;24.80
7846;DHT22;3968;51.424;6.788;2023-03-01T11:32:06;5.40;23.90
7846;DHT22;3968;51.424;6.788;2023-03-01T11:34:40;5.40;23.60
7846;DHT22;3968;51.424;6.788;2023-03-01T11:37:19;5.40;23.00
7846;DHT22;3968;51.424;6.788;2023-03-01T11:39:58;5.40;22.90
7846;DHT22;3968;51.424;6.788;2023-03-01T11:42:28;5.30;21.90
7846;DHT22;3968;51.424;6.788;2023-03-01T11:44:59;5.30;21.20
7846;DHT22;3968;51.424;6.788;2023-03-01T11:50:18;5.40;20.30
7846;DHT22;3968;51.424;6.788;2023-03-01T11:55:58;5.50;19.30
7846;DHT22;3968;51.424;6.788;2023-03-01T11:58:54;5.50;19.80
7846;DHT22;3968;51.424;6.788;2023-03-01T12:04:31;5.50;20.50
7846;DHT22;3968;51.424;6.788;2023-03-01T12:07:26;5.50;20.20
7846;DHT22;3968;51.424;6.788;2023-03-01T12:13:17;5.50;19.40
7846;DHT22;3968;51.424;6.788;2023-03-01T12:15:53;5.60;18.80
7846;DHT22;3968;51.424;6.788;2023-03-01T12:29:35;5.60;17.00
7846;DHT22;3968;51.424;6.788;2023-03-01T12:40:58;5.60;16.80
7846;DHT22;3968;51.424;6.788;2023-03-01T12:49:11;5.80;17.00
7846;DHT22;3968;51.424;6.788;2023-03-01T12:51:39;5.90;16.70
7846;DHT22;3968;51.424;6.788;2023-03-01T12:54:14;5.90;16.80
7846;DHT22;3968;51.424;6.788;2023-03-01T12:56:40;5.90;17.80
7846;DHT22;3968;51.424;6.788;2023-03-01T12:59:24;5.90;18.10
7846;DHT22;3968;51.424;6.788;2023-03-01T13:02:04;6.00;18.60
7846;DHT22;3968;51.424;6.788;2023-03-01T13:07:34;6.10;16.80
7846;DHT22;3968;51.424;6.788;2023-03-01T13:15:45;6.20;15.10
7846;DHT22;3968;51.424;6.788;2023-03-01T13:26:13;6.30;14.90
7846;DHT22;3968;51.424;6.788;2023-03-01T13:36:08;6.40;14.10
7846;DHT22;3968;51.424;6.788;2023-03-01T13:38:44;6.40;14.00
7846;DHT22;3968;51.424;6.788;2023-03-01T13:41:15;6.40;14.10
7846;DHT22;3968;51.424;6.788;2023-03-01T13:43:43;6.40;14.20
7846;DHT22;3968;51.424;6.788;2023-03-01T13:46:18;6.40;14.00
7846;DHT22;3968;51.424;6.788;2023-03-01T13:48:49;6.40;14.30
7846;DHT22;3968;51.424;6.788;2023-03-01T13:51:15;6.40;14.60
7846;DHT22;3968;51.424;6.788;2023-03-01T13:53:44;6.40;14.00
7846;DHT22;3968;51.424;6.788;2023-03-01T13:56:20;6.40;13.70
7846;DHT22;3968;51.424;6.788;2023-03-01T13:59:17;6.50;13.70
7846;DHT22;3968;51.424;6.788;2023-03-01T14:01:43;6.50;13.90
7846;DHT22;3968;51.424;6.788;2023-03-01T14:04:24;6.50;14.40
7846;DHT22;3968;51.424;6.788;2023-03-01T14:06:51;6.50;12.80
7846;DHT22;3968;51.424;6.788;2023-03-01T14:09:25;6.50;12.80
7846;DHT22;3968;51.424;6.788;2023-03-01T14:12:06;6.60;13.10
7846;DHT22;3968;51.424;6.788;2023-03-01T14:20:14;6.60;12.90
7846;DHT22;3968;51.424;6.788;2023-03-01T14:22:41;6.60;12.90
7846;DHT22;3968;51.424;6.788;2023-03-01T14:25:29;6.70;13.10
7846;DHT22;3968;51.424;6.788;2023-03-01T14:27:57;6.70;13.00
7846;DHT22;3968;51.424;6.788;2023-03-01T14:30:41;6.70;13.30
7846;DHT22;3968;51.424;6.788;2023-03-01T14:36:03;6.60;13.30
7846;DHT22;3968;51.424;6.788;2023-03-01T14:38:47;6.60;13.30
7846;DHT22;3968;51.424;6.788;2023-03-01T14:41:18;6.70;13.40
7846;DHT22;3968;51.424;6.788;2023-03-01T14:43:56;6.60;13.00
7846;DHT22;3968;51.424;6.788;2023-03-01T14:46:36;6.60;12.90
7846;DHT22;3968;51.424;6.788;2023-03-01T14:51:40;6.60;13.60
7846;DHT22;3968;51.424;6.788;2023-03-01T14:57:00;6.60;13.30
7846;DHT22;3968;51.424;6.788;2023-03-01T14:59:26;6.70;13.60
7846;DHT22;3968;51.424;6.788;2023-03-01T15:01:54;6.60;13.60
7846;DHT22;3968;51.424;6.788;2023-03-01T15:04:21;6.70;14.00
7846;DHT22;3968;51.424;6.788;2023-03-01T15:06:50;6.70;14.10
7846;DHT22;3968;51.424;6.788;2023-03-01T15:09:17;6.70;14.50
7846;DHT22;3968;51.424;6.788;2023-03-01T15:11:44;6.70;15.10
7846;DHT22;3968;51.424;6.788;2023-03-01T15:14:40;6.70;15.40
7846;DHT22;3968;51.424;6.788;2023-03-01T15:17:36;6.70;15.90
7846;DHT22;3968;51.424;6.788;2023-03-01T15:20:06;6.70;15.70
7846;DHT22;3968;51.424;6.788;2023-03-01T15:22:32;6.70;15.20
7846;DHT22;3968;51.424;6.788;2023-03-01T15:24:58;6.70;15.50
7846;DHT22;3968;51.424;6.788;2023-03-01T15:27:25;6.70;15.10
7846;DHT22;3968;51.424;6.788;2023-03-01T15:29:58;6.70;15.50
7846;DHT22;3968;51.424;6.788;2023-03-01T15:32:33;6.70;15.40
7846;DHT22;3968;51.424;6.788;2023-03-01T15:35:00;6.70;15.30
7846;DHT22;3968;51.424;6.788;2023-03-01T15:37:47;6.60;15.30
7846;DHT22;3968;51.424;6.788;2023-03-01T15:40:24;6.60;15.50
7846;DHT22;3968;51.424;6.788;2023-03-01T15:43:00;6.60;15.60
7846;DHT22;3968;51.424;6.788;2023-03-01T15:45:27;6.60;15.60
7846;DHT22;3968;51.424;6.788;2023-03-01T15:48:00;6.60;17.20
7846;DHT22;3968;51.424;6.788;2023-03-01T15:50:31;6.60;15.90
7846;DHT22;3968;51.424;6.788;2023-03-01T15:53:00;6.60;15.40
7846;DHT22;3968;51.424;6.788;2023-03-01T15:55:28;6.60;15.00
7846;DHT22;3968;51.424;6.788;2023-03-01T15:57:59;6.60;15.10
7846;DHT22;3968;51.424;6.788;2023-03-01T16:00:26;6.70;14.60
7846;DHT22;3968;51.424;6.788;2023-03-01T16:02:52;6.60;14.80
7846;DHT22;3968;51.424;6.788;2023-03-01T16:05:26;6.60;14.80
7846;DHT22;3968;51.424;6.788;2023-03-01T16:07:52;6.60;15.00
7846;DHT22;3968;51.424;6.788;2023-03-01T16:10:19;6.50;15.00
7846;DHT22;3968;51.424;6.788;2023-03-01T16:12:44;6.50;15.20
7846;DHT22;3968;51.424;6.788;2023-03-01T16:15:18;6.50;15.20
7846;DHT22;3968;51.424;6.788;2023-03-01T16:17:44;6.50;15.50
7846;DHT22;3968;51.424;6.788;2023-03-01T16:20:10;6.50;14.80
7846;DHT22;3968;51.424;6.788;2023-03-01T16:22:36;6.50;14.50
7846;DHT22;3968;51.424;6.788;2023-03-01T16:25:01;6.50;13.90
7846;DHT22;3968;51.424;6.788;2023-03-01T16:27:28;6.50;13.70
7846;DHT22;3968;51.424;6.788;2023-03-01T16:29:54;6.40;13.40
7846;DHT22;3968;51.424;6.788;2023-03-01T16:32:20;6.40;13.40
7846;DHT22;3968;51.424;6.788;2023-03-01T16:34:45;6.60;19.80
7846;DHT22;3968;51.424;6.788;2023-03-01T16:37:15;6.80;22.40
7846;DHT22;3968;51.424;6.788;2023-03-01T16:39:40;7.00;17.00
7846;DHT22;3968;51.424;6.788;2023-03-01T16:42:06;7.00;14.20
7846;DHT22;3968;51.424;6.788;2023-03-01T16:44:32;6.90;13.50
7846;DHT22;3968;51.424;6.788;2023-03-01T16:46:57;6.80;13.30
7846;DHT22;3968;51.424;6.788;2023-03-01T16:49:23;6.70;13.30
7846;DHT22;3968;51.424;6.788;2023-03-01T16:51:48;6.60;13.70
7846;DHT22;3968;51.424;6.788;2023-03-01T16:54:14;6.50;13.90
7846;DHT22;3968;51.424;6.788;2023-03-01T16:56:39;6.40;13.80
7846;DHT22;3968;51.424;6.788;2023-03-01T16:59:06;6.40;14.00
7846;DHT22;3968;51.424;6.788;2023-03-01T17:01:32;6.40;14.30
7846;DHT22;3968;51.424;6.788;2023-03-01T17:04:05;6.30;14.30
7846;DHT22;3968;51.424;6.788;2023-03-01T17:06:30;6.30;14.60
7846;DHT22;3968;51.424;6.788;2023-03-01T17:08:57;6.20;14.50
7846;DHT22;3968;51.424;6.788;2023-03-01T17:11:24;6.20;17.70
7846;DHT22;3968;51.424;6.788;2023-03-01T17:13:50;6.30;18.50
7846;DHT22;3968;51.424;6.788;2023-03-01T17:16:18;6.30;17.60
7846;DHT22;3968;51.424;6.788;2023-03-01T17:18:44;6.30;16.90
7846;DHT22;3968;51.424;6.788;2023-03-01T17:21:11;6.20;16.40
7846;DHT22;3968;51.424;6.788;2023-03-01T17:23:38;6.20;16.10
7846;DHT22;3968;51.424;6.788;2023-03-01T17:26:04;6.20;16.30
7846;DHT22;3968;51.424;6.788;2023-03-01T17:28:31;6.10;16.40
7846;DHT22;3968;51.424;6.788;2023-03-01T17:30:59;6.00;16.80
7846;DHT22;3968;51.424;6.788;2023-03-01T17:33:26;6.00;18.60
7846;DHT22;3968;51.424;6.788;2023-03-01T17:35:52;6.20;25.80
7846;DHT22;3968;51.424;6.788;2023-03-01T17:38:18;6.40;23.50
7846;DHT22;3968;51.424;6.788;2023-03-01T17:40:44;6.40;19.00
7846;DHT22;3968;51.424;6.788;2023-03-01T17:43:15;6.30;18.00
7846;DHT22;3968;51.424;6.788;2023-03-01T17:45:42;6.20;17.30
7846;DHT22;3968;51.424;6.788;2023-03-01T17:48:13;6.10;17.30
7846;DHT22;3968;51.424;6.788;2023-03-01T17:50:38;6.10;17.20
7846;DHT22;3968;51.424;6.788;2023-03-01T17:53:07;6.10;17.00
7846;DHT22;3968;51.424;6.788;2023-03-01T17:55:41;6.10;20.20
7846;DHT22;3968;51.424;6.788;2023-03-01T17:58:08;6.20;20.00
7846;DHT22;3968;51.424;6.788;2023-03-01T18:00:34;6.20;18.20
7846;DHT22;3968;51.424;6.788;2023-03-01T18:03:00;6.30;19.20
7846;DHT22;3968;51.424;6.788;2023-03-01T18:05:26;6.30;18.20
7846;DHT22;3968;51.424;6.788;2023-03-01T18:07:52;6.20;17.60
7846;DHT22;3968;51.424;6.788;2023-03-01T18:10:19;6.10;17.30
7846;DHT22;3968;51.424;6.788;2023-03-01T18:12:45;6.10;18.20
7846;DHT22;3968;51.424;6.788;2023-03-01T18:15:11;6.10;18.10
7846;DHT22;3968;51.424;6.788;2023-03-01T18:17:37;6.00;18.20
7846;DHT22;3968;51.424;6.788;2023-03-01T18:20:04;6.00;17.30
7846;DHT22;3968;51.424;6.788;2023-03-01T18:22:31;5.90;17.50
7846;DHT22;3968;51.424;6.788;2023-03-01T18:24:57;5.80;17.50
7846;DHT22;3968;51.424;6.788;2023-03-01T18:27:22;5.80;17.70
7846;DHT22;3968;51.424;6.788;2023-03-01T18:29:48;5.70;18.10